createdAt,value
2019-03-28T00:00:19.573Z,4.91
2019-03-28T00:01:19.577Z,4.94
2019-03-28T00:02:19.530Z,4.93
2019-03-28T00:03:19.539Z,4.89
2019-03-28T00:04:19.559Z,4.94
2019-03-28T00:05:19.632Z,4.96
2019-03-28T00:06:19.530Z,4.94
2019-03-28T00:07:19.582Z,4.91
2019-03-28T00:08:19.577Z,4.91
2019-03-28T00:09:20.126Z,4.95
2019-03-28T00:10:20.869Z,4.93
2019-03-28T00:11:19.544Z,4.92
2019-03-28T00:12:19.523Z,4.93
2019-03-28T00:13:19.535Z,4.94
2019-03-28T00:14:20.509Z,4.97
2019-03-28T00:15:19.623Z,4.95
2019-03-28T00:16:19.543Z,4.94
2019-03-28T00:17:19.539Z,4.94
2019-03-28T00:18:19.535Z,4.93
2019-03-28T00:19:19.594Z,4.93
2019-03-28T00:20:19.505Z,4.92
2019-03-28T00:21:19.518Z,4.92
2019-03-28T00:22:19.506Z,4.9
2019-03-28T00:23:19.490Z,4.9
2019-03-28T00:24:19.527Z,4.88
2019-03-28T00:25:19.545Z,4.89
2019-03-28T00:26:32.229Z,4.88
2019-03-28T00:27:19.522Z,4.88
2019-03-28T00:28:19.543Z,4.82
2019-03-28T00:29:19.517Z,4.84
2019-03-28T00:30:19.592Z,4.84
2019-03-28T00:31:19.542Z,4.83
2019-03-28T00:32:19.585Z,4.82
2019-03-28T00:33:19.592Z,4.8
2019-03-28T00:34:19.517Z,4.83
2019-03-28T00:35:19.529Z,4.82
2019-03-28T00:36:19.506Z,4.82
2019-03-28T00:37:20.958Z,4.81
2019-03-28T00:38:19.505Z,4.82
2019-03-28T00:39:19.535Z,4.83
2019-03-28T00:40:19.510Z,4.83
2019-03-28T00:41:20.513Z,4.8
2019-03-28T00:42:19.490Z,4.8
2019-03-28T00:43:19.503Z,4.84
2019-03-28T00:44:19.463Z,4.83
2019-03-28T00:45:19.491Z,4.83
2019-03-28T00:46:19.478Z,4.82
2019-03-28T00:47:19.547Z,4.8
2019-03-28T00:48:19.472Z,4.78
2019-03-28T00:49:19.505Z,4.83
2019-03-28T00:50:19.467Z,4.83
2019-03-28T00:51:19.476Z,4.86
2019-03-28T00:52:19.470Z,4.84
2019-03-28T00:53:19.482Z,4.82
2019-03-28T00:54:19.471Z,4.83
2019-03-28T00:55:19.474Z,4.83
2019-03-28T00:56:19.515Z,4.8
2019-03-28T00:57:19.759Z,4.79
2019-03-28T00:58:19.514Z,4.85
2019-03-28T00:59:19.552Z,4.84
2019-03-28T01:00:20.751Z,4.82
2019-03-28T01:01:19.508Z,4.83
2019-03-28T01:02:19.450Z,4.81
2019-03-28T01:03:19.448Z,4.79
2019-03-28T01:04:19.450Z,4.83
2019-03-28T01:05:19.498Z,4.85
2019-03-28T01:06:19.450Z,4.84
2019-03-28T01:07:19.481Z,4.82
2019-03-28T01:08:19.428Z,4.83
2019-03-28T01:09:19.461Z,4.81
2019-03-28T01:10:19.419Z,4.79
2019-03-28T01:11:19.439Z,4.82
2019-03-28T01:12:19.477Z,4.8
2019-03-28T01:13:19.514Z,4.81
2019-03-28T01:14:19.471Z,4.8
2019-03-28T01:15:19.473Z,4.83
2019-03-28T01:16:19.412Z,4.89
2019-03-28T01:17:19.432Z,4.9
2019-03-28T01:18:20.440Z,4.87
2019-03-28T01:19:19.456Z,4.89
2019-03-28T01:20:19.438Z,4.89
2019-03-28T01:21:19.430Z,4.88
2019-03-28T01:22:19.396Z,4.86
2019-03-28T01:23:19.451Z,4.87
2019-03-28T01:24:19.401Z,4.85
2019-03-28T01:25:19.416Z,4.83
2019-03-28T01:26:19.440Z,4.78
2019-03-28T01:27:19.424Z,4.85
2019-03-28T01:28:19.440Z,4.84
2019-03-28T01:29:19.465Z,4.83
2019-03-28T01:30:19.481Z,4.81
2019-03-28T01:31:19.456Z,4.82
2019-03-28T01:32:19.411Z,4.83
2019-03-28T01:33:19.415Z,4.84
2019-03-28T01:34:19.454Z,4.82
2019-03-28T01:35:19.441Z,4.83
2019-03-28T01:36:19.416Z,4.82
2019-03-28T01:37:19.526Z,4.81
2019-03-28T01:38:20.550Z,4.8
2019-03-28T01:39:21.259Z,4.79
2019-03-28T01:40:19.591Z,4.8
2019-03-28T01:41:19.394Z,4.8
2019-03-28T01:42:19.488Z,4.78
2019-03-28T01:43:20.407Z,4.76
2019-03-28T01:44:19.393Z,4.77
2019-03-28T01:45:19.421Z,4.76
2019-03-28T01:46:19.376Z,4.76
2019-03-28T01:47:19.414Z,4.78
2019-03-28T01:48:19.373Z,4.77
2019-03-28T01:49:19.370Z,4.77
2019-03-28T01:50:19.369Z,4.73
2019-03-28T01:51:19.361Z,4.75
2019-03-28T01:52:19.374Z,4.75
2019-03-28T01:53:19.394Z,4.73
2019-03-28T01:54:19.389Z,4.69
2019-03-28T01:55:19.357Z,4.7
2019-03-28T01:56:19.364Z,4.72
2019-03-28T01:57:19.394Z,4.71
2019-03-28T01:58:19.367Z,4.71
2019-03-28T01:59:19.371Z,4.71
2019-03-28T02:00:19.362Z,4.7
2019-03-28T02:01:19.739Z,4.7
2019-03-28T02:02:20.429Z,4.71
2019-03-28T02:03:19.417Z,4.72
2019-03-28T02:04:19.369Z,4.7
2019-03-28T02:05:19.373Z,4.7
2019-03-28T02:06:19.362Z,4.69
2019-03-28T02:07:19.365Z,4.68
2019-03-28T02:08:19.335Z,4.67
2019-03-28T02:09:19.326Z,4.66
2019-03-28T02:10:19.333Z,4.65
2019-03-28T02:11:19.322Z,4.66
2019-03-28T02:12:19.347Z,4.66
2019-03-28T02:13:19.352Z,4.69
2019-03-28T02:14:19.328Z,4.72
2019-03-28T02:15:19.353Z,4.7
2019-03-28T02:16:19.358Z,4.72
2019-03-28T02:17:19.326Z,4.7
2019-03-28T02:18:19.324Z,4.68
2019-03-28T02:19:19.719Z,4.7
2019-03-28T02:20:19.342Z,4.69
2019-03-28T02:21:19.457Z,4.68
2019-03-28T02:22:19.747Z,4.67
2019-03-28T02:23:19.498Z,4.67
2019-03-28T02:24:19.304Z,4.66
2019-03-28T02:25:19.355Z,4.64
2019-03-28T02:26:20.517Z,4.66
2019-03-28T02:27:26.291Z,4.66
2019-03-28T02:28:19.351Z,4.65
2019-03-28T02:29:19.348Z,4.64
2019-03-28T02:30:19.334Z,4.62
2019-03-28T02:31:19.509Z,4.63
2019-03-28T02:32:19.351Z,4.62
2019-03-28T02:33:19.406Z,4.68
2019-03-28T02:34:19.340Z,4.73
2019-03-28T02:35:19.512Z,4.7
2019-03-28T02:36:19.335Z,4.7
2019-03-28T02:37:19.323Z,4.68
2019-03-28T02:38:19.409Z,4.68
2019-03-28T02:39:19.346Z,4.69
2019-03-28T02:40:19.366Z,4.68
2019-03-28T02:41:19.339Z,4.68
2019-03-28T02:42:19.358Z,4.68
2019-03-28T02:43:20.366Z,4.65
2019-03-28T02:44:19.340Z,4.65
2019-03-28T02:45:19.315Z,4.65
2019-03-28T02:46:19.357Z,4.65
2019-03-28T02:47:20.589Z,4.63
2019-03-28T02:48:19.324Z,4.65
2019-03-28T02:49:20.315Z,4.64
2019-03-28T02:50:19.294Z,4.64
2019-03-28T02:51:19.330Z,4.63
2019-03-28T02:52:19.313Z,4.61
2019-03-28T02:53:19.314Z,4.61
2019-03-28T02:54:19.315Z,4.59
2019-03-28T02:55:19.363Z,4.61
2019-03-28T02:56:20.407Z,4.64
2019-03-28T02:57:20.244Z,4.64
2019-03-28T02:58:19.383Z,4.65
2019-03-28T02:59:19.315Z,4.65
2019-03-28T03:00:21.252Z,4.63
2019-03-28T03:01:19.265Z,4.62
2019-03-28T03:02:19.267Z,4.63
2019-03-28T03:03:19.375Z,4.63
2019-03-28T03:04:19.351Z,4.63
2019-03-28T03:05:19.418Z,4.65
2019-03-28T03:06:19.404Z,4.63
2019-03-28T03:07:19.360Z,4.63
2019-03-28T03:08:19.376Z,4.64
2019-03-28T03:09:19.339Z,4.63
2019-03-28T03:10:19.278Z,4.63
2019-03-28T03:11:20.967Z,4.61
2019-03-28T03:12:19.360Z,4.61
2019-03-28T03:13:20.278Z,4.6
2019-03-28T03:14:19.371Z,4.61
2019-03-28T03:15:19.299Z,4.62
2019-03-28T03:16:19.279Z,4.6
2019-03-28T03:17:20.526Z,4.59
2019-03-28T03:18:22.076Z,4.59
2019-03-28T03:19:19.267Z,4.58
2019-03-28T03:20:19.254Z,4.59
2019-03-28T03:21:19.250Z,4.58
2019-03-28T03:22:19.311Z,4.58
2019-03-28T03:23:20.591Z,4.58
2019-03-28T03:24:19.313Z,4.55
2019-03-28T03:25:19.378Z,4.54
2019-03-28T03:26:19.282Z,4.54
2019-03-28T03:27:19.549Z,4.54
2019-03-28T03:28:19.261Z,4.54
2019-03-28T03:29:19.234Z,4.57
2019-03-28T03:30:19.333Z,4.58
2019-03-28T03:31:26.770Z,4.58
2019-03-28T03:32:19.924Z,4.59
2019-03-28T03:33:19.280Z,4.59
2019-03-28T03:34:19.288Z,4.59
2019-03-28T03:35:19.325Z,4.59
2019-03-28T03:36:19.251Z,4.6
2019-03-28T03:37:19.277Z,4.6
2019-03-28T03:38:19.296Z,4.6
2019-03-28T03:39:19.190Z,4.6
2019-03-28T03:40:19.219Z,4.61
2019-03-28T03:41:19.348Z,4.61
2019-03-28T03:42:19.364Z,4.61
2019-03-28T03:43:19.211Z,4.59
2019-03-28T03:44:19.194Z,4.61
2019-03-28T03:45:19.198Z,4.6
2019-03-28T03:46:19.207Z,4.57
2019-03-28T03:47:20.153Z,4.58
2019-03-28T03:48:19.447Z,4.59
2019-03-28T03:49:19.460Z,4.6
2019-03-28T03:50:19.235Z,4.6
2019-03-28T03:51:19.267Z,4.6
2019-03-28T03:52:19.195Z,4.58
2019-03-28T03:53:19.302Z,4.56
2019-03-28T03:54:19.224Z,4.57
2019-03-28T03:55:19.261Z,4.57
2019-03-28T03:56:19.249Z,4.56
2019-03-28T03:57:19.207Z,4.56
2019-03-28T03:58:19.649Z,4.56
2019-03-28T03:59:19.250Z,4.55
2019-03-28T04:00:19.230Z,4.57
2019-03-28T04:01:19.151Z,4.56
2019-03-28T04:02:19.191Z,4.56
2019-03-28T04:03:19.169Z,4.57
2019-03-28T04:04:19.192Z,4.56
2019-03-28T04:05:19.205Z,4.56
2019-03-28T04:06:19.223Z,4.56
2019-03-28T04:07:19.178Z,4.57
2019-03-28T04:08:19.264Z,4.55
2019-03-28T04:09:19.192Z,4.56
2019-03-28T04:10:19.413Z,4.56
2019-03-28T04:11:19.223Z,4.55
2019-03-28T04:12:19.333Z,4.56
2019-03-28T04:13:19.238Z,4.56
2019-03-28T04:14:19.359Z,4.57
2019-03-28T04:15:19.190Z,4.56
2019-03-28T04:16:19.222Z,4.57
2019-03-28T04:17:19.193Z,4.56
2019-03-28T04:18:22.868Z,4.56
2019-03-28T04:19:19.266Z,4.57
2019-03-28T04:20:19.157Z,4.57
2019-03-28T04:21:19.189Z,4.57
2019-03-28T04:22:19.172Z,4.53
2019-03-28T04:23:19.194Z,4.55
2019-03-28T04:24:19.178Z,4.57
2019-03-28T04:25:19.163Z,4.57
2019-03-28T04:26:19.183Z,4.57
2019-03-28T04:27:19.388Z,4.56
2019-03-28T04:28:32.944Z,4.54
2019-03-28T04:29:19.236Z,4.55
2019-03-28T04:30:19.176Z,4.54
2019-03-28T04:31:19.345Z,4.52
2019-03-28T04:32:20.941Z,4.51
2019-03-28T04:33:19.226Z,4.49
2019-03-28T04:34:19.162Z,4.5
2019-03-28T04:35:19.126Z,4.47
2019-03-28T04:36:19.175Z,4.48
2019-03-28T04:37:19.214Z,4.48
2019-03-28T04:38:19.173Z,4.46
2019-03-28T04:39:19.142Z,4.46
2019-03-28T04:40:19.155Z,4.48
2019-03-28T04:41:19.123Z,4.48
2019-03-28T04:42:19.196Z,4.48
2019-03-28T04:43:19.139Z,4.46
2019-03-28T04:44:19.141Z,4.48
2019-03-28T04:45:19.135Z,4.49
2019-03-28T04:46:19.130Z,4.5
2019-03-28T04:47:19.119Z,4.48
2019-03-28T04:48:19.165Z,4.5
2019-03-28T04:49:19.235Z,4.49
2019-03-28T04:50:19.107Z,4.51
2019-03-28T04:51:19.183Z,4.48
2019-03-28T04:52:19.751Z,4.47
2019-03-28T04:53:19.310Z,4.48
2019-03-28T04:54:19.305Z,4.47
2019-03-28T04:55:19.123Z,4.47
2019-03-28T04:56:19.127Z,4.49
2019-03-28T04:57:19.114Z,4.47
2019-03-28T04:58:23.724Z,4.48
2019-03-28T04:59:19.134Z,4.47
2019-03-28T05:00:19.199Z,4.47
2019-03-28T05:01:19.082Z,4.49
2019-03-28T05:02:19.153Z,4.5
2019-03-28T05:03:19.130Z,4.49
2019-03-28T05:04:21.487Z,4.49
2019-03-28T05:05:19.091Z,4.43
2019-03-28T05:06:19.089Z,4.46
2019-03-28T05:07:19.128Z,4.44
2019-03-28T05:08:19.114Z,4.45
2019-03-28T05:09:19.140Z,4.44
2019-03-28T05:10:19.196Z,4.43
2019-03-28T05:11:19.098Z,4.46
2019-03-28T05:12:19.240Z,4.43
2019-03-28T05:13:19.279Z,4.45
2019-03-28T05:14:19.098Z,4.47
2019-03-28T05:15:20.770Z,4.45
2019-03-28T05:16:19.082Z,4.47
2019-03-28T05:17:19.060Z,4.47
2019-03-28T05:18:19.083Z,4.46
2019-03-28T05:19:19.142Z,4.43
2019-03-28T05:20:19.059Z,4.47
2019-03-28T05:21:19.168Z,4.43
2019-03-28T05:22:20.044Z,4.44
2019-03-28T05:23:19.108Z,4.45
2019-03-28T05:24:19.090Z,4.45
2019-03-28T05:25:19.062Z,4.43
2019-03-28T05:26:19.044Z,4.44
2019-03-28T05:27:19.071Z,4.42
2019-03-28T05:28:19.049Z,4.43
2019-03-28T05:29:19.105Z,4.45
2019-03-28T05:30:19.048Z,4.44
2019-03-28T05:31:19.051Z,4.43
2019-03-28T05:32:19.030Z,4.41
2019-03-28T05:33:19.034Z,4.44
2019-03-28T05:34:19.024Z,4.47
2019-03-28T05:35:19.237Z,4.45
2019-03-28T05:36:19.108Z,4.47
2019-03-28T05:37:19.072Z,4.45
2019-03-28T05:38:19.057Z,4.43
2019-03-28T05:39:19.876Z,4.42
2019-03-28T05:40:19.019Z,4.45
2019-03-28T05:41:19.028Z,4.46
2019-03-28T05:42:19.050Z,4.47
2019-03-28T05:43:19.037Z,4.47
2019-03-28T05:44:19.029Z,4.46
2019-03-28T05:45:19.052Z,4.46
2019-03-28T05:46:19.057Z,4.47
2019-03-28T05:47:22.529Z,4.47
2019-03-28T05:48:19.126Z,4.47
2019-03-28T05:49:19.012Z,4.5
2019-03-28T05:50:19.000Z,4.49
2019-03-28T05:51:19.001Z,4.49
2019-03-28T05:52:18.991Z,4.5
2019-03-28T05:53:19.006Z,4.49
2019-03-28T05:54:19.035Z,4.51
2019-03-28T05:55:19.042Z,4.51
2019-03-28T05:56:19.011Z,4.51
2019-03-28T05:57:19.065Z,4.52
2019-03-28T05:58:19.231Z,4.52
2019-03-28T05:59:19.869Z,4.52
2019-03-28T06:00:19.084Z,4.52
2019-03-28T06:01:19.003Z,4.52
2019-03-28T06:02:19.008Z,4.52
2019-03-28T06:03:19.025Z,4.55
2019-03-28T06:04:18.980Z,4.65
2019-03-28T06:05:19.031Z,4.67
2019-03-28T06:06:19.018Z,4.6
2019-03-28T06:07:18.960Z,4.59
2019-03-28T06:08:19.025Z,4.58
2019-03-28T06:09:19.635Z,4.6
2019-03-28T06:10:19.027Z,4.61
2019-03-28T06:11:18.981Z,4.61
2019-03-28T06:12:19.560Z,4.61
2019-03-28T06:13:19.023Z,4.64
2019-03-28T06:14:19.007Z,4.66
2019-03-28T06:15:18.962Z,4.65
2019-03-28T06:16:18.976Z,4.66
2019-03-28T06:17:18.964Z,4.66
2019-03-28T06:18:18.957Z,4.65
2019-03-28T06:19:18.963Z,4.63
2019-03-28T06:20:18.976Z,4.61
2019-03-28T06:21:19.003Z,4.62
2019-03-28T06:22:18.963Z,4.66
2019-03-28T06:23:19.025Z,4.69
2019-03-28T06:24:19.083Z,4.68
2019-03-28T06:25:18.982Z,4.65
2019-03-28T06:26:19.021Z,4.67
2019-03-28T06:27:19.002Z,4.7
2019-03-28T06:28:19.003Z,4.72
2019-03-28T06:29:26.234Z,4.72
2019-03-28T06:30:19.039Z,4.73
2019-03-28T06:31:18.940Z,4.77
2019-03-28T06:32:18.994Z,4.76
2019-03-28T06:33:18.969Z,4.78
2019-03-28T06:34:19.083Z,4.81
2019-03-28T06:35:22.203Z,4.83
2019-03-28T06:36:19.008Z,4.84
2019-03-28T06:37:18.993Z,4.84
2019-03-28T06:38:18.934Z,4.84
2019-03-28T06:39:19.028Z,4.86
2019-03-28T06:40:19.302Z,4.87
2019-03-28T06:41:20.306Z,4.91
2019-03-28T06:42:18.974Z,4.89
2019-03-28T06:43:18.945Z,4.9
2019-03-28T06:44:18.982Z,4.92
2019-03-28T06:45:19.002Z,4.93
2019-03-28T06:46:19.021Z,4.9
2019-03-28T06:47:22.907Z,4.9
2019-03-28T06:48:18.971Z,4.88
2019-03-28T06:49:18.929Z,4.91
2019-03-28T06:50:18.954Z,4.95
2019-03-28T06:51:19.005Z,4.98
2019-03-28T06:52:19.052Z,4.97
2019-03-28T06:53:18.948Z,5
2019-03-28T06:54:18.942Z,4.99
2019-03-28T06:55:18.969Z,5.01
2019-03-28T06:56:19.064Z,5.02
2019-03-28T06:57:19.213Z,5
2019-03-28T06:58:19.041Z,5.03
2019-03-28T06:59:18.928Z,5.03
2019-03-28T07:00:18.975Z,5.01
2019-03-28T07:01:18.957Z,5
2019-03-28T07:02:22.305Z,4.99
2019-03-28T07:03:18.983Z,5
2019-03-28T07:04:18.967Z,4.99
2019-03-28T07:05:18.900Z,5.05
2019-03-28T07:06:18.901Z,5.03
2019-03-28T07:07:19.222Z,5.04
2019-03-28T07:08:18.915Z,5.06
2019-03-28T07:09:18.926Z,5.08
2019-03-28T07:10:18.903Z,5.11
2019-03-28T07:11:18.913Z,5.13
2019-03-28T07:12:18.976Z,5.13
2019-03-28T07:13:18.908Z,5.14
2019-03-28T07:14:18.869Z,5.16
2019-03-28T07:15:18.898Z,5.16
2019-03-28T07:16:24.108Z,5.15
2019-03-28T07:17:19.006Z,5.14
2019-03-28T07:18:18.946Z,5.17
2019-03-28T07:19:18.912Z,5.17
2019-03-28T07:20:18.950Z,5.2
2019-03-28T07:21:20.338Z,5.18
2019-03-28T07:22:18.930Z,5.18
2019-03-28T07:23:19.047Z,5.16
2019-03-28T07:24:19.040Z,5.19
2019-03-28T07:25:18.876Z,5.2
2019-03-28T07:26:18.886Z,5.22
2019-03-28T07:27:18.890Z,5.2
2019-03-28T07:28:18.932Z,5.21
2019-03-28T07:29:18.878Z,5.23
2019-03-28T07:30:19.787Z,5.22
2019-03-28T07:31:18.869Z,5.21
2019-03-28T07:32:18.937Z,5.24
2019-03-28T07:33:18.984Z,5.25
2019-03-28T07:34:18.868Z,5.27
2019-03-28T07:35:18.911Z,5.26
2019-03-28T07:36:18.869Z,5.25
2019-03-28T07:37:18.916Z,5.26
2019-03-28T07:38:18.879Z,5.27
2019-03-28T07:39:19.513Z,5.28
2019-03-28T07:40:18.892Z,5.26
2019-03-28T07:41:18.966Z,5.26
2019-03-28T07:42:18.871Z,5.28
2019-03-28T07:43:18.900Z,5.3
2019-03-28T07:44:18.890Z,5.28
2019-03-28T07:45:18.958Z,5.29
2019-03-28T07:46:18.958Z,5.28
2019-03-28T07:47:18.879Z,5.32
2019-03-28T07:48:18.889Z,5.31
2019-03-28T07:49:18.896Z,5.29
2019-03-28T07:50:18.823Z,5.3
2019-03-28T07:51:18.871Z,5.3
2019-03-28T07:52:20.539Z,5.32
2019-03-28T07:53:21.912Z,5.33
2019-03-28T07:54:18.874Z,5.33
2019-03-28T07:55:20.193Z,5.33
2019-03-28T07:56:18.845Z,5.38
2019-03-28T07:57:18.848Z,5.37
2019-03-28T07:58:18.832Z,5.42
2019-03-28T07:59:18.939Z,5.38
2019-03-28T08:00:18.975Z,5.39
2019-03-28T08:01:18.854Z,5.4
2019-03-28T08:02:18.878Z,5.39
2019-03-28T08:03:18.812Z,5.41
2019-03-28T08:04:18.826Z,5.42
2019-03-28T08:05:18.833Z,5.41
2019-03-28T08:06:18.821Z,5.39
2019-03-28T08:07:18.845Z,5.35
2019-03-28T08:08:18.853Z,5.41
2019-03-28T08:09:18.834Z,5.43
2019-03-28T08:10:18.824Z,5.44
2019-03-28T08:11:19.102Z,5.44
2019-03-28T08:12:23.867Z,5.42
2019-03-28T08:13:18.850Z,5.45
2019-03-28T08:14:18.806Z,5.45
2019-03-28T08:15:18.822Z,5.47
2019-03-28T08:16:18.788Z,5.48
2019-03-28T08:17:18.855Z,5.48
2019-03-28T08:18:19.861Z,5.47
2019-03-28T08:19:18.861Z,5.46
2019-03-28T08:20:18.833Z,5.49
2019-03-28T08:21:18.838Z,5.49
2019-03-28T08:22:18.803Z,5.49
2019-03-28T08:23:19.680Z,5.5
2019-03-28T08:24:18.865Z,5.51
2019-03-28T08:25:19.922Z,5.55
2019-03-28T08:26:18.826Z,5.56
2019-03-28T08:27:18.784Z,5.57
2019-03-28T08:28:18.956Z,5.58
2019-03-28T08:29:18.947Z,5.59
2019-03-28T08:30:19.930Z,5.58
2019-03-28T08:31:18.787Z,5.58
2019-03-28T08:32:18.795Z,5.55
2019-03-28T08:33:18.796Z,5.6
2019-03-28T08:34:19.192Z,5.59
2019-03-28T08:35:18.768Z,5.58
2019-03-28T08:36:18.796Z,5.6
2019-03-28T08:37:18.878Z,5.56
2019-03-28T08:38:18.782Z,5.58
2019-03-28T08:39:18.765Z,5.58
2019-03-28T08:40:18.756Z,5.59
2019-03-28T08:41:20.117Z,5.6
2019-03-28T08:42:20.022Z,5.6
2019-03-28T08:43:18.761Z,5.62
2019-03-28T08:44:18.785Z,5.63
2019-03-28T08:45:18.779Z,5.63
2019-03-28T08:46:18.801Z,5.63
2019-03-28T08:47:18.764Z,5.66
2019-03-28T08:48:18.811Z,5.65
2019-03-28T08:49:18.875Z,5.65
2019-03-28T08:50:18.776Z,5.62
2019-03-28T08:51:18.792Z,5.64
2019-03-28T08:52:18.772Z,5.65
2019-03-28T08:53:18.822Z,5.66
2019-03-28T08:54:18.745Z,5.66
2019-03-28T08:55:18.747Z,5.63
2019-03-28T08:56:18.786Z,5.66
2019-03-28T08:57:18.787Z,5.67
2019-03-28T08:58:18.778Z,5.63
2019-03-28T08:59:19.170Z,5.66
2019-03-28T09:00:53.297Z,5.71
2019-03-28T09:01:19.628Z,5.72
2019-03-28T09:02:18.748Z,5.74
2019-03-28T09:03:18.780Z,5.73
2019-03-28T09:04:18.752Z,5.71
2019-03-28T09:05:18.731Z,5.65
2019-03-28T09:06:18.847Z,5.67
2019-03-28T09:07:18.774Z,5.68
2019-03-28T09:08:18.771Z,5.69
2019-03-28T09:09:21.743Z,5.68
2019-03-28T09:10:18.731Z,5.72
2019-03-28T09:11:21.832Z,5.69
2019-03-28T09:12:18.956Z,5.63
2019-03-28T09:13:19.146Z,5.66
2019-03-28T09:14:18.748Z,5.69
2019-03-28T09:15:19.068Z,5.8
2019-03-28T09:16:18.776Z,5.81
2019-03-28T09:17:18.737Z,5.79
2019-03-28T09:18:19.131Z,5.74
2019-03-28T09:19:19.105Z,5.77
2019-03-28T09:20:18.754Z,5.68
2019-03-28T09:21:18.726Z,5.83
2019-03-28T09:22:18.776Z,5.82
2019-03-28T09:23:18.700Z,5.78
2019-03-28T09:24:18.700Z,5.68
2019-03-28T09:25:18.815Z,5.68
2019-03-28T09:26:18.725Z,5.67
2019-03-28T09:27:18.690Z,5.69
2019-03-28T09:28:18.679Z,5.69
2019-03-28T09:29:18.820Z,5.71
2019-03-28T09:30:18.690Z,5.68
2019-03-28T09:31:20.798Z,5.79
2019-03-28T09:32:18.913Z,5.8
2019-03-28T09:33:18.847Z,5.77
2019-03-28T09:34:18.719Z,5.74
2019-03-28T09:35:18.690Z,5.69
2019-03-28T09:36:18.744Z,5.66
2019-03-28T09:37:18.769Z,5.7
2019-03-28T09:38:18.728Z,5.79
2019-03-28T09:39:20.026Z,5.79
2019-03-28T09:40:18.709Z,5.77
2019-03-28T09:41:19.776Z,5.76
2019-03-28T09:42:19.703Z,5.81
2019-03-28T09:43:18.728Z,5.84
2019-03-28T09:44:18.700Z,5.78
2019-03-28T09:45:18.666Z,5.82
2019-03-28T09:46:18.696Z,5.83
2019-03-28T09:47:18.679Z,5.82
2019-03-28T09:48:18.709Z,5.81
2019-03-28T09:49:18.643Z,5.78
2019-03-28T09:50:18.676Z,5.84
2019-03-28T09:51:18.677Z,5.88
2019-03-28T09:52:18.668Z,5.85
2019-03-28T09:53:18.634Z,5.92
2019-03-28T09:54:19.784Z,5.99
2019-03-28T09:55:19.291Z,6.01
2019-03-28T09:56:18.708Z,6.05
2019-03-28T09:57:18.772Z,6.1
2019-03-28T09:58:18.675Z,6.02
2019-03-28T09:59:18.688Z,6.1
2019-03-28T10:00:18.662Z,6.09
2019-03-28T10:01:18.731Z,6.11
2019-03-28T10:02:18.626Z,6.12
2019-03-28T10:03:18.650Z,5.96
2019-03-28T10:04:18.644Z,5.95
2019-03-28T10:05:18.631Z,6
2019-03-28T10:06:18.638Z,6
2019-03-28T10:07:18.709Z,5.93
2019-03-28T10:08:18.603Z,6
2019-03-28T10:09:18.620Z,5.93
2019-03-28T10:10:18.679Z,6.03
2019-03-28T10:11:18.652Z,6.01
2019-03-28T10:12:19.738Z,5.98
2019-03-28T10:13:18.625Z,6.09
2019-03-28T10:14:18.632Z,6.08
2019-03-28T10:15:18.654Z,6.02
2019-03-28T10:16:18.799Z,6.1
2019-03-28T10:17:18.719Z,6.06
2019-03-28T10:18:18.625Z,6.04
2019-03-28T10:19:18.639Z,5.99
2019-03-28T10:20:18.659Z,5.99
2019-03-28T10:21:18.624Z,6.03
2019-03-28T10:22:18.642Z,6.05
2019-03-28T10:23:18.623Z,6.02
2019-03-28T10:24:18.652Z,6.02
2019-03-28T10:25:18.629Z,5.99
2019-03-28T10:26:18.633Z,6.01
2019-03-28T10:27:19.612Z,6.01
2019-03-28T10:28:18.644Z,6.03
2019-03-28T10:29:18.602Z,6
2019-03-28T10:30:18.583Z,6.02
2019-03-28T10:31:18.625Z,6.12
2019-03-28T10:32:18.664Z,6.17
2019-03-28T10:33:18.623Z,6.19
2019-03-28T10:34:19.510Z,6.25
2019-03-28T10:35:18.619Z,6.11
2019-03-28T10:36:18.585Z,6.16
2019-03-28T10:37:18.835Z,6.12
2019-03-28T10:38:18.711Z,6.13
2019-03-28T10:39:18.737Z,6.13
2019-03-28T10:40:18.584Z,6.06
2019-03-28T10:41:18.608Z,6
2019-03-28T10:42:20.945Z,5.97
2019-03-28T10:43:18.568Z,6.02
2019-03-28T10:44:18.634Z,6.02
2019-03-28T10:45:18.590Z,6.01
2019-03-28T10:46:18.613Z,6.05
2019-03-28T10:47:18.591Z,6.06
2019-03-28T10:48:23.826Z,6.05
2019-03-28T10:49:18.584Z,5.98
2019-03-28T10:50:18.635Z,6.14
2019-03-28T10:51:18.588Z,6.12
2019-03-28T10:52:18.583Z,6.18
2019-03-28T10:53:18.571Z,6.12
2019-03-28T10:54:21.295Z,6.1
2019-03-28T10:55:18.582Z,6.12
2019-03-28T10:56:24.792Z,6.12
2019-03-28T10:57:32.687Z,6.2
2019-03-28T10:58:20.017Z,6.25
2019-03-28T10:59:25.779Z,6.11
2019-03-28T11:00:26.091Z,6.15
2019-03-28T11:01:51.347Z,6.18
2019-03-28T11:02:18.570Z,6.14
2019-03-28T11:03:18.562Z,6.18
2019-03-28T11:04:18.614Z,6.15
2019-03-28T11:05:18.617Z,6.24
2019-03-28T11:06:18.586Z,6.19
2019-03-28T11:07:18.602Z,6.23
2019-03-28T11:08:18.629Z,6.18
2019-03-28T11:09:18.639Z,6.12
2019-03-28T11:10:18.575Z,6.14
2019-03-28T11:11:18.588Z,6.22
2019-03-28T11:12:18.549Z,6.22
2019-03-28T11:13:18.569Z,6.16
2019-03-28T11:14:18.559Z,6.29
2019-03-28T11:15:18.573Z,6.34
2019-03-28T11:16:18.547Z,6.41
2019-03-28T11:17:18.585Z,6.24
2019-03-28T11:18:18.568Z,6.19
2019-03-28T11:19:18.581Z,6.23
2019-03-28T11:20:18.834Z,6.27
2019-03-28T11:21:18.563Z,6.24
2019-03-28T11:22:18.616Z,6.16
2019-03-28T11:23:18.587Z,6.14
2019-03-28T11:24:18.630Z,6.29
2019-03-28T11:25:18.525Z,6.41
2019-03-28T11:26:18.656Z,6.45
2019-03-28T11:27:18.552Z,6.18
2019-03-28T11:28:18.624Z,6.18
2019-03-28T11:29:18.741Z,6.28
2019-03-28T11:30:18.984Z,6.41
2019-03-28T11:31:18.531Z,6.48
2019-03-28T11:32:19.203Z,6.31
2019-03-28T11:33:18.527Z,6.22
2019-03-28T11:34:18.535Z,6.22
2019-03-28T11:35:18.697Z,6.29
2019-03-28T11:36:18.515Z,6.24
2019-03-28T11:38:18.854Z,6.32
2019-03-28T11:39:18.504Z,6.19
2019-03-28T11:40:19.446Z,6.14
2019-03-28T11:41:19.027Z,6.15
2019-03-28T11:42:19.945Z,6.21
2019-03-28T11:43:20.248Z,6.34
2019-03-28T11:44:18.558Z,6.35
2019-03-28T11:45:18.548Z,6.2
2019-03-28T11:46:18.564Z,6.28
2019-03-28T11:47:24.247Z,6.23
2019-03-28T11:48:18.534Z,6.26
2019-03-28T11:49:18.525Z,6.21
2019-03-28T11:50:18.499Z,6.29
2019-03-28T11:51:18.519Z,6.28
2019-03-28T11:52:18.493Z,6.31
2019-03-28T11:53:18.519Z,6.18
2019-03-28T11:54:18.488Z,6.19
2019-03-28T11:55:18.502Z,6.3
2019-03-28T11:56:18.528Z,6.22
2019-03-28T11:57:18.507Z,6.26
2019-03-28T11:58:18.593Z,6.32
2019-03-28T11:59:18.534Z,6.17
2019-03-28T12:00:18.523Z,6.23
2019-03-28T12:01:18.542Z,6.32
2019-03-28T12:02:21.028Z,6.29
2019-03-28T12:03:18.511Z,6.42
2019-03-28T12:04:18.445Z,6.37
2019-03-28T12:05:18.489Z,6.46
2019-03-28T12:06:18.537Z,6.48
2019-03-28T12:07:18.589Z,6.44
2019-03-28T12:08:19.740Z,6.21
2019-03-28T12:09:18.540Z,6.19
2019-03-28T12:10:18.525Z,6.4
2019-03-28T12:11:18.526Z,6.43
2019-03-28T12:12:18.467Z,6.27
2019-03-28T12:13:18.542Z,6.29
2019-03-28T12:14:18.494Z,6.24
2019-03-28T12:15:18.466Z,6.34
2019-03-28T12:16:18.550Z,6.33
2019-03-28T12:17:18.509Z,6.23
2019-03-28T12:18:18.521Z,6.23
2019-03-28T12:19:18.493Z,6.25
2019-03-28T12:20:18.549Z,6.33
2019-03-28T12:21:19.361Z,6.39
2019-03-28T12:22:18.524Z,6.38
2019-03-28T12:23:18.448Z,6.31
2019-03-28T12:24:18.458Z,6.28
2019-03-28T12:25:18.499Z,6.29
2019-03-28T12:26:18.474Z,6.25
2019-03-28T12:27:18.482Z,6.41
2019-03-28T12:28:18.464Z,6.34
2019-03-28T12:29:18.527Z,6.37
2019-03-28T12:30:18.496Z,6.32
2019-03-28T12:31:18.451Z,6.32
2019-03-28T12:32:18.434Z,6.32
2019-03-28T12:33:18.428Z,6.27
2019-03-28T12:34:18.442Z,6.28
2019-03-28T12:35:18.456Z,6.32
2019-03-28T12:36:19.255Z,6.31
2019-03-28T12:37:18.430Z,6.31
2019-03-28T12:38:18.459Z,6.28
2019-03-28T12:39:18.433Z,6.38
2019-03-28T12:40:18.433Z,6.56
2019-03-28T12:41:18.562Z,6.46
2019-03-28T12:42:18.579Z,6.36
2019-03-28T12:43:18.433Z,6.32
2019-03-28T12:44:18.428Z,6.32
2019-03-28T12:45:18.498Z,6.34
2019-03-28T12:46:18.420Z,6.31
2019-03-28T12:47:18.436Z,6.27
2019-03-28T12:48:18.417Z,6.31
2019-03-28T12:49:18.443Z,6.35
2019-03-28T12:50:18.418Z,6.31
2019-03-28T12:51:18.407Z,6.26
2019-03-28T12:52:18.976Z,6.24
2019-03-28T12:53:18.424Z,6.24
2019-03-28T12:54:18.420Z,6.32
2019-03-28T12:55:18.575Z,6.35
2019-03-28T12:56:18.442Z,6.3
2019-03-28T12:57:18.386Z,6.34
2019-03-28T12:58:18.404Z,6.39
2019-03-28T12:59:18.457Z,6.32
2019-03-28T13:00:18.420Z,6.24
2019-03-28T13:01:18.407Z,6.2
2019-03-28T13:02:32.347Z,6.2
2019-03-28T13:03:18.421Z,6.25
2019-03-28T13:04:18.660Z,6.33
2019-03-28T13:05:18.500Z,6.41
2019-03-28T13:06:18.381Z,6.32
2019-03-28T13:07:18.451Z,6.24
2019-03-28T13:08:18.459Z,6.3
2019-03-28T13:09:18.411Z,6.33
2019-03-28T13:10:18.432Z,6.4
2019-03-28T13:11:20.024Z,6.43
2019-03-28T13:12:18.407Z,6.37
2019-03-28T13:13:18.412Z,6.36
2019-03-28T13:14:18.374Z,6.36
2019-03-28T13:15:18.374Z,6.35
2019-03-28T13:16:18.381Z,6.41
2019-03-28T13:17:18.414Z,6.41
2019-03-28T13:18:18.409Z,6.36
2019-03-28T13:19:18.372Z,6.37
2019-03-28T13:20:18.397Z,6.47
2019-03-28T13:21:18.491Z,6.43
2019-03-28T13:22:18.386Z,6.48